Time;durP1;ratioP1;P1;durP2;ratioP2;P2;SDS_P1;SDS_P2;PMS_P1;PMS_P2;Temp;Humidity;BMP_temperature;BMP_pressure;BME280_temperature;BME280_humidity;BME280_pressure;Samples;Min_cycle;Max_cycle;Signal;HPM_P1;HPM_P2
2023/07/03 00:02:12;;;;;;;38.97;12.57;;;;;;;;;;4935103;29;20035;-59
2023/07/03 00:04:38;;;;;;;35.25;12.90;;;;;;;;;;4932807;29;20413;-59
2023/07/03 00:07:05;;;;;;;39.10;13.05;;;;;;;;;;4934168;29;20035;-58
2023/07/03 00:09:32;;;;;;;38.03;13.40;;;;;;;;;;4936423;28;20050;-59
2023/07/03 00:11:58;;;;;;;37.17;13.35;;;;;;;;;;4933318;29;20066;-59
2023/07/03 00:14:24;;;;;;;37.80;12.50;;;;;;;;;;4930491;29;20032;-59
2023/07/03 00:16:50;;;;;;;45.03;12.52;;;;;;;;;;4936098;29;20577;-59
2023/07/03 00:19:16;;;;;;;40.33;12.60;;;;;;;;;;4933669;29;20537;-59
2023/07/03 00:21:46;;;;;;;42.25;12.40;;;;;;;;;;4939096;28;20063;-58
2023/07/03 00:24:13;;;;;;;46.30;14.27;;;;;;;;;;4937122;28;20055;-58
2023/07/03 00:26:39;;;;;;;37.88;11.95;;;;;;;;;;4933571;29;20055;-59
2023/07/03 00:29:06;;;;;;;33.83;12.07;;;;;;;;;;4938440;29;20044;-58
2023/07/03 00:31:32;;;;;;;38.95;12.60;;;;;;;;;;4948282;28;20039;-58
2023/07/03 00:33:58;;;;;;;42.45;13.10;;;;;;;;;;4932065;29;20032;-60
2023/07/03 00:36:25;;;;;;;41.85;12.90;;;;;;;;;;4933309;28;20054;-58
2023/07/03 00:38:57;;;;;;;38.20;12.23;;;;;;;;;;4931862;29;20047;-58
2023/07/03 00:41:26;;;;;;;47.30;13.27;;;;;;;;;;4933098;29;20038;-59
2023/07/03 00:43:52;;;;;;;35.58;11.73;;;;;;;;;;4947875;28;20070;-59
2023/07/03 00:46:19;;;;;;;37.58;9.15;;;;;;;;;;4947732;28;20031;-59
2023/07/03 00:48:45;;;;;;;42.65;13.32;;;;;;;;;;4931467;29;20055;-59
2023/07/03 00:51:14;;;;;;;48.75;14.45;;;;;;;;;;4932611;29;20043;-59
2023/07/03 00:53:40;;;;;;;38.00;13.07;;;;;;;;;;4933804;29;20039;-59
2023/07/03 00:56:07;;;;;;;39.05;13.18;;;;;;;;;;4947076;28;20056;-60
2023/07/03 00:58:34;;;;;;;44.72;13.77;;;;;;;;;;4948012;28;20052;-59
2023/07/03 01:01:37;;;;;;;42.10;12.50;;;;;;;;;;4932470;29;20047;-60
2023/07/03 01:04:13;;;;;;;45.97;13.32;;;;;;;;;;4948882;28;20040;-59
2023/07/03 01:06:47;;;;;;;39.85;13.02;;;;;;;;;;4929066;29;20051;-59
2023/07/03 01:09:17;;;;;;;40.25;13.18;;;;;;;;;;4934384;29;20525;-59
2023/07/03 01:11:45;;;;;;;41.97;13.88;;;;;;;;;;4932211;29;20043;-59
2023/07/03 01:14:14;;;;;;;44.72;14.02;;;;;;;;;;4931684;29;20495;-60
2023/07/03 01:16:41;;;;;;;43.33;12.77;;;;;;;;;;4933325;29;20052;-60
2023/07/03 01:19:12;;;;;;;39.00;12.45;;;;;;;;;;4936763;29;20426;-59
2023/07/03 01:21:51;;;;;;;40.60;13.63;;;;;;;;;;4947763;29;20059;-61
2023/07/03 01:24:31;;;;;;;39.55;14.40;;;;;;;;;;4929506;29;20039;-59
2023/07/03 01:27:01;;;;;;;47.25;13.68;;;;;;;;;;4933516;29;20516;-60
2023/07/03 01:29:28;;;;;;;49.45;13.18;;;;;;;;;;4947403;28;20047;-59
2023/07/03 01:31:56;;;;;;;47.05;13.60;;;;;;;;;;4934810;28;20056;-59
2023/07/03 01:34:26;;;;;;;45.63;13.70;;;;;;;;;;4933123;28;20039;-60
2023/07/03 01:36:54;;;;;;;47.88;13.73;;;;;;;;;;4933097;28;20055;-60
2023/07/03 01:39:20;;;;;;;39.03;13.10;;;;;;;;;;4937174;29;20401;-60
2023/07/03 01:41:48;;;;;;;45.83;13.15;;;;;;;;;;4947620;28;20520;-60
2023/07/03 01:44:15;;;;;;;51.10;14.20;;;;;;;;;;4932376;28;20570;-60
2023/07/03 01:46:42;;;;;;;42.83;13.38;;;;;;;;;;4934079;29;20051;-59
2023/07/03 01:49:15;;;;;;;42.10;13.18;;;;;;;;;;4948060;28;20044;-60
2023/07/03 01:52:01;;;;;;;41.97;14.23;;;;;;;;;;4936653;28;20067;-60
2023/07/03 01:54:36;;;;;;;42.00;13.10;;;;;;;;;;4925155;29;20055;-59
2023/07/03 01:57:03;;;;;;;47.15;12.75;;;;;;;;;;4936717;28;20047;-60
2023/07/03 01:59:32;;;;;;;40.50;13.27;;;;;;;;;;4948950;28;20051;-59
2023/07/03 02:02:11;;;;;;;48.40;13.33;;;;;;;;;;4946714;28;20118;-59
2023/07/03 02:04:41;;;;;;;40.85;13.15;;;;;;;;;;4932262;29;20048;-59
2023/07/03 02:07:10;;;;;;;42.90;13.27;;;;;;;;;;4937058;29;20405;-59
2023/07/03 02:09:39;;;;;;;53.50;13.63;;;;;;;;;;4933698;28;20405;-60
2023/07/03 02:12:06;;;;;;;35.10;11.43;;;;;;;;;;4937514;29;20398;-60
2023/07/03 02:14:34;;;;;;;44.78;12.93;;;;;;;;;;4931903;28;20039;-60
2023/07/03 02:17:02;;;;;;;43.92;13.15;;;;;;;;;;4947816;28;20051;-60
2023/07/03 02:19:31;;;;;;;46.10;13.52;;;;;;;;;;4947735;28;20098;-60
2023/07/03 02:21:58;;;;;;;38.85;12.38;;;;;;;;;;4934528;29;20036;-60
2023/07/03 02:24:25;;;;;;;65.65;13.45;;;;;;;;;;4934361;29;20040;-60
2023/07/03 02:26:52;;;;;;;53.05;14.05;;;;;;;;;;4939597;28;20387;-60
2023/07/03 02:29:19;;;;;;;37.92;11.85;;;;;;;;;;4935955;29;20042;-59
2023/07/03 02:31:45;;;;;;;38.30;12.68;;;;;;;;;;4942204;29;20393;-60
2023/07/03 02:34:11;;;;;;;41.00;12.27;;;;;;;;;;4940122;28;20039;-60
2023/07/03 02:36:39;;;;;;;37.92;12.93;;;;;;;;;;4942165;29;20039;-59
2023/07/03 02:39:06;;;;;;;45.70;12.70;;;;;;;;;;4935412;28;20044;-59
2023/07/03 02:41:33;;;;;;;44.00;12.77;;;;;;;;;;4940607;28;20044;-60
2023/07/03 02:43:59;;;;;;;45.73;14.07;;;;;;;;;;4934043;29;20043;-59
2023/07/03 02:46:29;;;;;;;38.15;12.13;;;;;;;;;;4950458;28;20245;-60
2023/07/03 02:48:55;;;;;;;48.45;12.65;;;;;;;;;;4953413;28;20051;-60
2023/07/03 02:51:23;;;;;;;43.42;12.40;;;;;;;;;;4950075;28;20051;-60
2023/07/03 02:53:52;;;;;;;44.10;12.13;;;;;;;;;;4939029;28;20062;-60
2023/07/03 02:56:18;;;;;;;41.08;11.95;;;;;;;;;;4950948;28;20035;-60
2023/07/03 02:58:47;;;;;;;35.25;11.70;;;;;;;;;;4957168;28;20046;-60
2023/07/03 03:01:18;;;;;;;44.63;12.40;;;;;;;;;;4935261;29;20046;-60
2023/07/03 03:03:46;;;;;;;42.88;12.10;;;;;;;;;;4932816;29;20035;-60
2023/07/03 03:06:12;;;;;;;44.67;12.70;;;;;;;;;;4933579;29;20512;-60
2023/07/03 03:08:39;;;;;;;49.95;13.38;;;;;;;;;;4934990;29;20501;-60
2023/07/03 03:11:06;;;;;;;41.50;12.25;;;;;;;;;;4941384;29;20054;-60
2023/07/03 03:13:32;;;;;;;40.28;12.48;;;;;;;;;;4934053;29;20050;-61
2023/07/03 03:15:59;;;;;;;47.20;13.88;;;;;;;;;;4949767;28;20035;-61
2023/07/03 03:18:25;;;;;;;50.78;12.85;;;;;;;;;;4939116;29;20054;-61
2023/07/03 03:20:51;;;;;;;35.20;12.05;;;;;;;;;;4949601;28;20035;-61
2023/07/03 03:23:17;;;;;;;43.97;13.02;;;;;;;;;;4948483;28;20042;-60
2023/07/03 03:25:43;;;;;;;55.67;13.13;;;;;;;;;;4950746;28;20059;-60
2023/07/03 03:28:10;;;;;;;49.65;13.05;;;;;;;;;;4952358;28;20397;-59
2023/07/03 03:30:38;;;;;;;43.53;14.25;;;;;;;;;;4936388;29;20038;-60
2023/07/03 03:33:04;;;;;;;40.00;12.10;;;;;;;;;;4948996;28;20058;-60
2023/07/03 03:35:30;;;;;;;43.42;13.10;;;;;;;;;;4951004;28;20031;-59
2023/07/03 03:37:57;;;;;;;45.38;12.90;;;;;;;;;;4954759;28;20046;-60
2023/07/03 03:40:23;;;;;;;46.40;12.15;;;;;;;;;;4950085;28;20040;-60
2023/07/03 03:42:50;;;;;;;43.90;14.25;;;;;;;;;;4934657;29;20043;-58
2023/07/03 03:45:16;;;;;;;46.55;12.70;;;;;;;;;;4948874;28;20044;-61
2023/07/03 03:47:43;;;;;;;41.88;12.50;;;;;;;;;;4936401;28;20047;-61
2023/07/03 03:50:09;;;;;;;41.85;12.13;;;;;;;;;;4935338;28;20062;-61
2023/07/03 03:52:39;;;;;;;44.55;13.27;;;;;;;;;;4935664;29;20055;-61
2023/07/03 03:55:06;;;;;;;40.13;13.35;;;;;;;;;;4934543;29;20489;-61
2023/07/03 03:57:32;;;;;;;46.03;12.60;;;;;;;;;;4936372;29;20038;-61
2023/07/03 04:00:00;;;;;;;37.15;12.38;;;;;;;;;;4953972;28;20042;-60
2023/07/03 04:02:26;;;;;;;39.63;11.57;;;;;;;;;;4949403;28;20349;-60
2023/07/03 04:04:52;;;;;;;46.03;12.30;;;;;;;;;;4933427;29;20370;-60
2023/07/03 04:07:18;;;;;;;39.92;12.75;;;;;;;;;;4938537;28;20617;-60
2023/07/03 04:09:44;;;;;;;49.10;13.32;;;;;;;;;;4941021;29;20035;-61
2023/07/03 04:12:11;;;;;;;41.83;12.82;;;;;;;;;;4934703;28;20040;-59
2023/07/03 04:14:38;;;;;;;46.92;12.85;;;;;;;;;;4933938;29;20050;-61
2023/07/03 04:17:05;;;;;;;37.03;11.63;;;;;;;;;;4940533;29;20044;-60
2023/07/03 04:19:31;;;;;;;41.25;11.65;;;;;;;;;;4941139;29;20023;-60
2023/07/03 04:21:57;;;;;;;43.53;12.60;;;;;;;;;;4939113;29;20509;-60
2023/07/03 04:24:24;;;;;;;37.50;11.70;;;;;;;;;;4932202;29;20071;-61
2023/07/03 04:26:54;;;;;;;36.92;11.48;;;;;;;;;;4952663;28;20048;-60
2023/07/03 04:29:21;;;;;;;;;;;;;;;;;;4934832;29;20039;-61
2023/07/03 04:31:47;;;;;;;39.33;11.52;;;;;;;;;;4934591;28;19922;-61
2023/07/03 04:34:13;;;;;;;40.45;12.07;;;;;;;;;;4936684;28;20039;-61
2023/07/03 04:36:39;;;;;;;38.63;11.63;;;;;;;;;;4938721;29;20039;-60
2023/07/03 04:39:07;;;;;;;41.38;12.80;;;;;;;;;;4939148;29;20035;-60
2023/07/03 04:41:33;;;;;;;40.97;12.40;;;;;;;;;;4934059;29;20032;-60
2023/07/03 04:44:00;;;;;;;40.80;11.80;;;;;;;;;;4932844;29;20035;-60
2023/07/03 04:46:27;;;;;;;36.42;11.20;;;;;;;;;;4949486;28;20038;-60
2023/07/03 04:49:00;;;;;;;33.00;12.13;;;;;;;;;;4939732;29;20042;-60
2023/07/03 04:51:30;;;;;;;24.27;6.47;;;;;;;;;;4933625;29;20031;-60
2023/07/03 04:53:58;;;;;;;21.77;6.72;;;;;;;;;;4932893;29;20062;-59
2023/07/03 04:56:25;;;;;;;29.77;7.10;;;;;;;;;;4932493;29;20043;-59
2023/07/03 04:58:52;;;;;;;23.65;6.95;;;;;;;;;;4938506;28;20058;-61
2023/07/03 05:01:19;;;;;;;29.15;6.18;;;;;;;;;;4934840;29;20504;-59
2023/07/03 05:03:45;;;;;;;26.60;6.38;;;;;;;;;;4938339;29;20047;-61
2023/07/03 05:06:11;;;;;;;16.48;4.72;;;;;;;;;;4935622;29;20050;-60
2023/07/03 05:08:37;;;;;;;17.92;4.80;;;;;;;;;;4933193;29;20031;-59
2023/07/03 05:11:03;;;;;;;19.35;5.15;;;;;;;;;;4936242;29;20040;-58
2023/07/03 05:13:29;;;;;;;23.38;5.38;;;;;;;;;;4955983;28;20044;-59
2023/07/03 05:15:55;;;;;;;17.63;4.75;;;;;;;;;;4932689;29;20059;-58
2023/07/03 05:18:22;;;;;;;15.57;5.78;;;;;;;;;;4933257;29;20052;-58
2023/07/03 05:20:49;;;;;;;8.98;5.15;;;;;;;;;;4932499;29;20039;-60
2023/07/03 05:23:15;;;;;;;11.52;3.63;;;;;;;;;;4946042;28;20413;-60
2023/07/03 05:25:42;;;;;;;6.50;2.45;;;;;;;;;;4930991;29;20044;-59
2023/07/03 05:28:08;;;;;;;13.88;4.68;;;;;;;;;;4932370;29;20031;-61
2023/07/03 05:30:34;;;;;;;15.32;4.85;;;;;;;;;;4943868;28;20047;-61
2023/07/03 05:33:00;;;;;;;10.32;3.42;;;;;;;;;;4931198;29;20044;-61
2023/07/03 05:35:27;;;;;;;9.93;3.67;;;;;;;;;;4932519;28;20039;-60
2023/07/03 05:37:53;;;;;;;14.63;4.82;;;;;;;;;;4933100;29;20039;-60
2023/07/03 05:40:19;;;;;;;13.52;3.97;;;;;;;;;;4933379;28;20059;-60
2023/07/03 05:42:46;;;;;;;14.07;3.78;;;;;;;;;;4929817;29;20035;-60
2023/07/03 05:45:12;;;;;;;11.60;3.00;;;;;;;;;;4932406;29;20388;-62
2023/07/03 05:47:38;;;;;;;17.83;4.63;;;;;;;;;;4928013;29;20070;-62
2023/07/03 05:50:05;;;;;;;12.25;3.13;;;;;;;;;;4931934;28;20040;-61
2023/07/03 05:52:33;;;;;;;10.98;4.82;;;;;;;;;;4932008;28;20051;-62
2023/07/03 05:54:59;;;;;;;11.88;3.90;;;;;;;;;;4932649;29;20417;-60
2023/07/03 05:57:25;;;;;;;9.00;2.75;;;;;;;;;;4935063;29;20044;-60
2023/07/03 05:59:52;;;;;;;12.13;4.15;;;;;;;;;;4951233;28;20035;-61
2023/07/03 06:02:19;;;;;;;10.02;2.40;;;;;;;;;;4938722;29;20034;-60
2023/07/03 06:04:45;;;;;;;10.60;2.85;;;;;;;;;;4931387;28;20055;-60
2023/07/03 06:07:12;;;;;;;15.45;4.07;;;;;;;;;;4932280;29;21875;-59
2023/07/03 06:09:38;;;;;;;7.93;2.67;;;;;;;;;;4935482;28;20445;-59
2023/07/03 06:12:05;;;;;;;10.48;3.15;;;;;;;;;;4934411;29;20035;-59
2023/07/03 06:14:31;;;;;;;3.53;1.88;;;;;;;;;;4933843;29;20032;-60
2023/07/03 06:16:58;;;;;;;11.13;2.90;;;;;;;;;;4931535;29;20039;-59
2023/07/03 06:19:26;;;;;;;10.82;2.08;;;;;;;;;;4948790;28;20044;-59
2023/07/03 06:21:52;;;;;;;12.82;3.25;;;;;;;;;;4934204;28;20052;-59
2023/07/03 06:24:18;;;;;;;12.98;3.92;;;;;;;;;;4933429;29;20441;-59
2023/07/03 06:26:45;;;;;;;7.78;2.67;;;;;;;;;;4934450;29;20578;-59
2023/07/03 06:29:12;;;;;;;9.07;2.13;;;;;;;;;;4934562;29;20429;-59
2023/07/03 06:31:38;;;;;;;7.72;2.28;;;;;;;;;;4934134;29;20031;-59
2023/07/03 06:34:05;;;;;;;9.93;2.70;;;;;;;;;;4933438;29;20036;-58
2023/07/03 06:36:31;;;;;;;12.60;3.42;;;;;;;;;;4933359;29;20034;-59
2023/07/03 06:38:59;;;;;;;8.20;2.60;;;;;;;;;;4934026;29;20036;-58
2023/07/03 06:41:28;;;;;;;9.07;3.33;;;;;;;;;;4949361;28;20040;-58
2023/07/03 06:43:55;;;;;;;16.40;2.83;;;;;;;;;;4933424;29;20055;-59
2023/07/03 06:46:22;;;;;;;6.15;2.40;;;;;;;;;;4933372;29;20039;-59
2023/07/03 06:48:48;;;;;;;11.73;2.72;;;;;;;;;;4935322;28;20051;-59
2023/07/03 06:51:14;;;;;;;4.65;1.70;;;;;;;;;;4933839;29;20040;-60
2023/07/03 06:53:41;;;;;;;2.42;1.63;;;;;;;;;;4933835;29;20052;-59
2023/07/03 06:56:08;;;;;;;5.90;1.95;;;;;;;;;;4933595;29;20039;-58
2023/07/03 06:58:35;;;;;;;20.75;2.20;;;;;;;;;;4933566;29;20490;-59
2023/07/03 07:01:06;;;;;;;3.80;1.77;;;;;;;;;;4932998;29;20044;-59
2023/07/03 07:03:32;;;;;;;9.05;2.88;;;;;;;;;;4933245;29;20062;-59
2023/07/03 07:06:07;;;;;;;10.50;4.47;;;;;;;;;;4930734;29;20039;-59
2023/07/03 07:08:34;;;;;;;7.55;3.20;;;;;;;;;;4947689;28;20043;-59
2023/07/03 07:11:00;;;;;;;12.07;3.15;;;;;;;;;;4932806;29;20040;-60
2023/07/03 07:13:26;;;;;;;15.57;5.60;;;;;;;;;;4931914;29;20039;-60
2023/07/03 07:15:52;;;;;;;7.53;3.50;;;;;;;;;;4933147;28;20413;-60
2023/07/03 07:18:18;;;;;;;6.25;3.00;;;;;;;;;;4933140;29;20517;-60
2023/07/03 07:20:44;;;;;;;9.10;3.40;;;;;;;;;;4933067;29;20063;-60
2023/07/03 07:23:10;;;;;;;10.40;2.47;;;;;;;;;;4931261;29;20055;-60
2023/07/03 07:25:36;;;;;;;3.92;2.67;;;;;;;;;;4932145;29;20433;-60
2023/07/03 07:28:03;;;;;;;12.15;3.97;;;;;;;;;;4932004;29;20043;-60
2023/07/03 07:30:29;;;;;;;14.52;4.22;;;;;;;;;;4933222;28;20437;-60
2023/07/03 07:32:55;;;;;;;13.80;3.50;;;;;;;;;;4931965;29;20050;-60
2023/07/03 07:35:22;;;;;;;8.35;3.63;;;;;;;;;;4930892;29;20039;-60
2023/07/03 07:37:48;;;;;;;10.50;2.63;;;;;;;;;;4930286;29;20056;-60
2023/07/03 07:40:16;;;;;;;7.35;3.15;;;;;;;;;;4932228;29;20039;-60
2023/07/03 07:42:42;;;;;;;14.20;4.45;;;;;;;;;;4946850;28;20111;-60
2023/07/03 07:45:08;;;;;;;7.88;2.58;;;;;;;;;;4946418;28;20058;-60
2023/07/03 07:47:34;;;;;;;13.48;3.72;;;;;;;;;;4932592;28;20043;-61
2023/07/03 07:50:01;;;;;;;10.52;4.97;;;;;;;;;;4932818;28;20064;-60
2023/07/03 07:52:27;;;;;;;20.55;5.13;;;;;;;;;;4929813;29;20035;-61
2023/07/03 07:54:55;;;;;;;17.88;3.95;;;;;;;;;;4932726;28;20416;-60
2023/07/03 07:57:21;;;;;;;11.63;3.83;;;;;;;;;;4931918;29;20039;-60
2023/07/03 07:59:47;;;;;;;16.75;5.30;;;;;;;;;;4932779;29;20035;-58
2023/07/03 08:02:13;;;;;;;16.23;4.15;;;;;;;;;;4933809;28;20051;-59
2023/07/03 08:04:39;;;;;;;13.82;4.30;;;;;;;;;;4948023;28;20047;-59
2023/07/03 08:07:05;;;;;;;15.70;3.80;;;;;;;;;;4933145;29;20938;-58
2023/07/03 08:09:31;;;;;;;8.82;3.80;;;;;;;;;;4931639;29;20508;-59
2023/07/03 08:12:02;;;;;;;10.65;4.10;;;;;;;;;;4931650;29;20055;-59
2023/07/03 08:14:28;;;;;;;11.00;3.78;;;;;;;;;;4930968;29;20031;-60
2023/07/03 08:16:55;;;;;;;14.15;4.70;;;;;;;;;;4932044;28;20048;-60
2023/07/03 08:19:21;;;;;;;15.10;4.85;;;;;;;;;;4930592;29;20047;-60
2023/07/03 08:21:47;;;;;;;13.10;3.72;;;;;;;;;;4930857;29;20042;-61
2023/07/03 08:24:13;;;;;;;11.45;3.83;;;;;;;;;;4930692;29;20418;-60
2023/07/03 08:26:41;;;;;;;19.42;4.40;;;;;;;;;;4931395;29;20039;-61
2023/07/03 08:29:08;;;;;;;12.25;3.72;;;;;;;;;;4930754;29;20402;-60
2023/07/03 08:31:34;;;;;;;13.50;3.85;;;;;;;;;;4931189;29;20058;-61
2023/07/03 08:34:00;;;;;;;10.27;3.63;;;;;;;;;;4930659;29;20039;-60
2023/07/03 08:36:26;;;;;;;17.83;4.70;;;;;;;;;;4928486;29;20024;-59
2023/07/03 08:38:52;;;;;;;11.23;4.22;;;;;;;;;;4929758;29;20035;-60
2023/07/03 08:41:19;;;;;;;9.48;4.53;;;;;;;;;;4930077;29;20043;-60
2023/07/03 08:43:48;;;;;;;17.17;5.20;;;;;;;;;;4930649;28;20047;-61
2023/07/03 08:46:19;;;;;;;11.73;3.47;;;;;;;;;;4929128;29;20083;-60
2023/07/03 08:48:48;;;;;;;17.67;4.85;;;;;;;;;;4941869;28;20056;-60
2023/07/03 08:51:18;;;;;;;11.35;4.53;;;;;;;;;;4928307;28;20524;-60
2023/07/03 08:53:52;;;;;;;10.60;4.07;;;;;;;;;;4927944;29;20437;-60
2023/07/03 08:56:25;;;;;;;25.13;5.72;;;;;;;;;;4942909;28;20734;-60
2023/07/03 08:58:53;;;;;;;12.27;4.40;;;;;;;;;;4929705;28;20059;-60
2023/07/03 09:01:32;;;;;;;12.03;5.00;;;;;;;;;;4927398;29;20042;-60
2023/07/03 09:04:33;;;;;;;9.40;3.67;;;;;;;;;;4929902;29;20292;-60
2023/07/03 09:07:03;;;;;;;5.88;3.22;;;;;;;;;;4928525;29;20498;-61
2023/07/03 09:09:35;;;;;;;10.43;4.47;;;;;;;;;;4930205;29;20040;-60
2023/07/03 09:12:14;;;;;;;12.85;5.10;;;;;;;;;;4929750;29;20040;-60
2023/07/03 09:15:17;;;;;;;25.30;5.57;;;;;;;;;;4920899;29;20046;-60
2023/07/03 09:17:45;;;;;;;12.57;4.60;;;;;;;;;;4929475;29;20287;-60
2023/07/03 09:20:14;;;;;;;9.82;4.57;;;;;;;;;;4925720;29;20040;-60
2023/07/03 09:22:54;;;;;;;9.30;4.38;;;;;;;;;;4927439;29;20124;-60
2023/07/03 09:25:26;;;;;;;15.57;3.65;;;;;;;;;;4930827;29;20489;-60
2023/07/03 09:27:56;;;;;;;9.10;4.00;;;;;;;;;;4929841;29;20048;-60
2023/07/03 09:30:22;;;;;;;6.00;2.83;;;;;;;;;;4923990;29;20043;-60
2023/07/03 09:32:48;;;;;;;9.48;3.70;;;;;;;;;;4938215;29;20051;-60
2023/07/03 09:35:20;;;;;;;1053.05;505.65;;;;;;;;;;4936313;29;20055;-60
2023/07/03 09:37:51;;;;;;;22.77;7.95;;;;;;;;;;4936442;29;20028;-61
2023/07/03 09:40:22;;;;;;;22.75;9.15;;;;;;;;;;4936292;29;20481;-61
2023/07/03 09:42:48;;;;;;;16.88;7.60;;;;;;;;;;4937294;28;20051;-60
2023/07/03 09:45:18;;;;;;;19.55;7.68;;;;;;;;;;4950929;28;20044;-60
2023/07/03 09:47:57;;;;;;;19.88;7.95;;;;;;;;;;4935662;29;20036;-60
2023/07/03 09:50:28;;;;;;;20.70;7.35;;;;;;;;;;4935100;29;20641;-61
2023/07/03 09:52:56;;;;;;;20.63;8.48;;;;;;;;;;4934736;29;20401;-60
2023/07/03 09:55:23;;;;;;;22.63;7.85;;;;;;;;;;4934614;29;20038;-60
2023/07/03 09:57:49;;;;;;;24.42;7.72;;;;;;;;;;4935299;29;20039;-60
2023/07/03 10:00:20;;;;;;;21.98;7.70;;;;;;;;;;4936422;29;20397;-60
2023/07/03 10:02:51;;;;;;;24.60;7.97;;;;;;;;;;4935961;28;20052;-60
2023/07/03 10:05:25;;;;;;;21.98;8.35;;;;;;;;;;4935307;29;20059;-61
2023/07/03 10:07:55;;;;;;;28.92;8.75;;;;;;;;;;4950558;28;20527;-63
2023/07/03 10:10:22;;;;;;;26.77;8.95;;;;;;;;;;4934088;29;20035;-61
2023/07/03 10:13:14;;;;;;;22.33;8.40;;;;;;;;;;4928795;29;20036;-61
2023/07/03 10:15:42;;;;;;;24.23;8.75;;;;;;;;;;4934782;29;20051;-61
2023/07/03 10:18:17;;;;;;;22.83;7.85;;;;;;;;;;4936303;28;20059;-60
2023/07/03 10:20:46;;;;;;;23.33;8.13;;;;;;;;;;4933153;29;20040;-60
2023/07/03 10:23:37;;;;;;;23.27;8.10;;;;;;;;;;4934754;29;20055;-60
2023/07/03 10:26:16;;;;;;;20.10;7.88;;;;;;;;;;4934734;29;20137;-61
2023/07/03 10:28:56;;;;;;;21.63;7.75;;;;;;;;;;4935162;29;20044;-60
2023/07/03 10:31:49;;;;;;;27.02;8.90;;;;;;;;;;4933867;28;20044;-60
2023/07/03 10:34:23;;;;;;;19.80;7.43;;;;;;;;;;4931849;29;20040;-60
2023/07/03 10:36:59;;;;;;;22.15;8.13;;;;;;;;;;4933467;29;20039;-60
2023/07/03 10:39:34;;;;;;;18.30;7.22;;;;;;;;;;4934956;29;20040;-60
2023/07/03 10:42:04;;;;;;;20.85;7.45;;;;;;;;;;4934051;29;20040;-61
2023/07/03 10:44:36;;;;;;;19.25;7.22;;;;;;;;;;4934988;28;20446;-60
2023/07/03 10:47:14;;;;;;;20.10;7.38;;;;;;;;;;4933869;29;20047;-60
2023/07/03 10:49:40;;;;;;;17.80;7.60;;;;;;;;;;4934871;29;20048;-60
2023/07/03 10:52:18;;;;;;;20.40;7.65;;;;;;;;;;4933871;29;20287;-60
2023/07/03 10:55:03;;;;;;;19.92;7.68;;;;;;;;;;4934094;29;20040;-60
2023/07/03 10:57:37;;;;;;;21.42;7.68;;;;;;;;;;4934821;29;20658;-60
2023/07/03 11:00:11;;;;;;;19.35;7.00;;;;;;;;;;4949129;28;20064;-60
2023/07/03 11:03:00;;;;;;;17.40;6.70;;;;;;;;;;4933478;29;20042;-60
2023/07/03 11:05:34;;;;;;;18.15;6.53;;;;;;;;;;4930546;29;20040;-61
2023/07/03 11:08:07;;;;;;;19.48;6.85;;;;;;;;;;4932711;29;20043;-60
2023/07/03 11:11:09;;;;;;;18.88;6.40;;;;;;;;;;4934324;29;20051;-61
2023/07/03 11:13:51;;;;;;;23.27;6.45;;;;;;;;;;4933249;29;20055;-61
2023/07/03 11:16:21;;;;;;;15.90;6.45;;;;;;;;;;4932719;29;20047;-60
2023/07/03 11:18:58;;;;;;;18.38;6.20;;;;;;;;;;4935567;29;20043;-61
2023/07/03 11:21:31;;;;;;;17.10;6.00;;;;;;;;;;4933319;29;20043;-60
2023/07/03 11:24:16;;;;;;;13.85;5.80;;;;;;;;;;4933965;29;20062;-61
2023/07/03 11:26:56;;;;;;;14.48;5.05;;;;;;;;;;4932524;29;20043;-62
2023/07/03 11:29:23;;;;;;;14.20;4.18;;;;;;;;;;4934630;29;20051;-60
2023/07/03 11:31:50;;;;;;;12.82;5.00;;;;;;;;;;4933890;29;20043;-61
2023/07/03 11:34:19;;;;;;;13.40;4.35;;;;;;;;;;4948419;28;20051;-60
2023/07/03 11:36:51;;;;;;;10.10;4.65;;;;;;;;;;4933839;29;20040;-60
2023/07/03 11:39:29;;;;;;;10.68;4.65;;;;;;;;;;4935465;28;20421;-61
2023/07/03 11:42:01;;;;;;;11.38;4.30;;;;;;;;;;4934103;28;20050;-61
2023/07/03 11:44:27;;;;;;;7.97;4.07;;;;;;;;;;4933729;29;20050;-61
2023/07/03 11:47:16;;;;;;;10.02;4.20;;;;;;;;;;4947313;28;20039;-61
2023/07/03 11:50:02;;;;;;;1432.45;351.98;;;;;;;;;;4933866;28;20048;-60
2023/07/03 11:52:33;;;;;;;1999.90;999.90;;;;;;;;;;4927471;29;20030;-61
2023/07/03 11:55:07;;;;;;;;;;;;;;;;;;4935324;28;20062;-61
2023/07/03 11:57:38;;;;;;;1999.90;999.90;;;;;;;;;;4933085;29;19925;-62
2023/07/03 12:00:24;;;;;;;1999.90;999.90;;;;;;;;;;4930890;29;20059;-61
2023/07/03 12:02:59;;;;;;;1999.90;999.90;;;;;;;;;;4936593;29;20039;-61
2023/07/03 12:05:44;;;;;;;1999.90;999.90;;;;;;;;;;4933538;29;20038;-63
2023/07/03 12:08:22;;;;;;;1999.90;999.90;;;;;;;;;;4932998;29;20039;-64
2023/07/03 12:10:54;;;;;;;1999.90;999.90;;;;;;;;;;4932367;29;20043;-63
2023/07/03 12:13:44;;;;;;;1999.90;999.90;;;;;;;;;;4932430;29;20059;-63
2023/07/03 12:16:22;;;;;;;1999.90;999.90;;;;;;;;;;4934267;28;20051;-63
2023/07/03 12:19:04;;;;;;;1999.90;999.90;;;;;;;;;;4933516;29;20031;-62
2023/07/03 12:21:36;;;;;;;1999.90;999.90;;;;;;;;;;4933295;28;20387;-63
2023/07/03 12:24:18;;;;;;;1999.90;999.90;;;;;;;;;;4933253;29;20066;-61
2023/07/03 12:27:00;;;;;;;1999.90;999.90;;;;;;;;;;4932924;29;20039;-62
2023/07/03 12:29:28;;;;;;;1999.90;999.90;;;;;;;;;;4933632;29;20051;-62
2023/07/03 12:31:55;;;;;;;1999.90;999.90;;;;;;;;;;4932528;29;20035;-61
2023/07/03 12:34:26;;;;;;;1999.90;999.90;;;;;;;;;;4932218;29;20043;-61
2023/07/03 12:36:59;;;;;;;1999.90;999.90;;;;;;;;;;4933845;28;20043;-61
2023/07/03 12:39:25;;;;;;;1999.90;999.90;;;;;;;;;;4931581;29;20039;-61
2023/07/03 12:41:51;;;;;;;8.95;3.75;;;;;;;;;;4932493;29;20413;-61
2023/07/03 12:44:22;;;;;;;6.25;2.90;;;;;;;;;;4930873;29;20527;-60
2023/07/03 12:46:48;;;;;;;7.18;3.33;;;;;;;;;;4932499;29;20040;-62
2023/07/03 12:49:17;;;;;;;7.65;3.00;;;;;;;;;;4936190;29;20059;-61
2023/07/03 12:51:49;;;;;;;;;;;;;;;;;;4932161;29;20048;-61
2023/07/03 12:54:15;;;;;;;8.77;3.40;;;;;;;;;;4932437;28;20288;-62
2023/07/03 12:56:43;;;;;;;6.82;3.30;;;;;;;;;;4935499;29;20047;-61
2023/07/03 12:59:14;;;;;;;8.45;3.53;;;;;;;;;;4933349;29;20036;-61
2023/07/03 13:01:41;;;;;;;9.77;3.17;;;;;;;;;;4933346;29;20067;-61
2023/07/03 13:04:07;;;;;;;5.57;3.10;;;;;;;;;;4936308;29;20055;-61
2023/07/03 13:06:34;;;;;;;7.90;3.30;;;;;;;;;;4932237;29;20039;-61
2023/07/03 13:09:01;;;;;;;8.10;3.08;;;;;;;;;;4933620;28;20059;-63
2023/07/03 13:11:39;;;;;;;8.88;3.45;;;;;;;;;;4933507;28;20421;-61
2023/07/03 13:14:32;;;;;;;6.03;3.05;;;;;;;;;;4931974;29;20031;-60
2023/07/03 13:17:00;;;;;;;9.00;3.50;;;;;;;;;;4942783;28;20043;-61
2023/07/03 13:19:34;;;;;;;6.07;2.90;;;;;;;;;;4933154;29;20148;-62
2023/07/03 13:22:13;;;;;;;6.82;2.70;;;;;;;;;;4931250;29;20040;-61
2023/07/03 13:24:46;;;;;;;6.97;3.55;;;;;;;;;;4932545;29;20038;-61
2023/07/03 13:27:24;;;;;;;7.25;3.55;;;;;;;;;;4931765;29;20044;-61
2023/07/03 13:29:55;;;;;;;9.25;3.17;;;;;;;;;;4932797;28;20501;-61
2023/07/03 13:32:23;;;;;;;9.07;3.40;;;;;;;;;;4932230;29;20047;-60
2023/07/03 13:34:54;;;;;;;8.07;3.38;;;;;;;;;;4932883;29;20462;-60
2023/07/03 13:37:24;;;;;;;7.07;3.40;;;;;;;;;;4932176;28;20035;-60
2023/07/03 13:39:51;;;;;;;6.35;3.53;;;;;;;;;;4933010;28;20051;-60
2023/07/03 13:42:18;;;;;;;6.47;3.30;;;;;;;;;;4930350;29;20036;-60
2023/07/03 13:44:44;;;;;;;6.78;3.40;;;;;;;;;;4932682;29;20048;-60
2023/07/03 13:47:11;;;;;;;6.65;3.63;;;;;;;;;;4932202;29;20031;-60
2023/07/03 13:49:39;;;;;;;7.75;3.72;;;;;;;;;;4931483;29;20043;-60
2023/07/03 13:52:06;;;;;;;12.32;3.60;;;;;;;;;;4931629;29;20035;-59
2023/07/03 13:54:32;;;;;;;9.30;4.10;;;;;;;;;;4931665;28;20048;-60
2023/07/03 13:56:58;;;;;;;10.38;4.07;;;;;;;;;;4931382;29;20043;-60
2023/07/03 13:59:24;;;;;;;12.48;4.00;;;;;;;;;;4932832;29;20027;-60
2023/07/03 14:01:50;;;;;;;6.82;3.47;;;;;;;;;;4931517;29;20050;-62
2023/07/03 14:04:16;;;;;;;8.02;3.97;;;;;;;;;;4933953;29;20062;-60
2023/07/03 14:06:42;;;;;;;9.38;4.07;;;;;;;;;;4931314;29;20429;-60
2023/07/03 14:09:09;;;;;;;8.15;4.13;;;;;;;;;;4932177;29;20035;-60
2023/07/03 14:11:36;;;;;;;8.32;4.10;;;;;;;;;;4931293;29;20040;-59
2023/07/03 14:14:05;;;;;;;8.38;3.75;;;;;;;;;;4930319;29;20129;-60
2023/07/03 14:16:31;;;;;;;8.07;3.58;;;;;;;;;;4933458;29;20051;-60
2023/07/03 14:18:57;;;;;;;9.75;4.10;;;;;;;;;;4938792;29;20031;-60
2023/07/03 14:21:24;;;;;;;9.18;3.67;;;;;;;;;;4937150;29;20043;-60
2023/07/03 14:23:50;;;;;;;8.63;4.10;;;;;;;;;;4935353;28;20502;-60
2023/07/03 14:26:17;;;;;;;10.63;4.18;;;;;;;;;;4936849;29;20055;-60
2023/07/03 14:28:45;;;;;;;8.02;4.10;;;;;;;;;;4934354;28;20063;-60
2023/07/03 14:31:16;;;;;;;11.98;4.63;;;;;;;;;;4935961;29;20405;-60
2023/07/03 14:33:43;;;;;;;9.55;4.22;;;;;;;;;;4938160;28;20044;-63
2023/07/03 14:36:10;;;;;;;10.93;5.03;;;;;;;;;;4935617;28;20046;-62
2023/07/03 14:38:36;;;;;;;10.48;4.28;;;;;;;;;;4935462;29;20028;-63
2023/07/03 14:41:03;;;;;;;10.10;3.90;;;;;;;;;;4933706;29;20043;-62